createdAt,value
2018-09-25T04:00:51.908Z,7.23
2018-09-25T04:01:51.779Z,7.22
2018-09-25T04:03:44.435Z,7.29
2018-09-25T04:04:44.327Z,7.22
2018-09-25T04:06:37.014Z,7.30
2018-09-25T04:07:36.875Z,7.26
2018-09-25T04:09:29.537Z,7.29
2018-09-25T04:10:29.425Z,7.26
2018-09-25T04:12:22.099Z,7.29
2018-09-25T04:13:21.974Z,7.29
2018-09-25T04:15:14.634Z,7.37
2018-09-25T04:16:14.517Z,7.29
2018-09-25T04:18:07.200Z,7.30
2018-09-25T04:19:07.070Z,7.36
2018-09-25T04:20:59.749Z,7.33
2018-09-25T04:21:59.639Z,7.31
2018-09-25T04:23:52.334Z,7.34
2018-09-25T04:24:52.196Z,7.31
2018-09-25T04:26:44.858Z,7.23
2018-09-25T04:27:44.744Z,7.29
2018-09-25T04:29:37.435Z,7.21
2018-09-25T04:30:37.305Z,7.18
2018-09-25T04:32:29.978Z,7.18
2018-09-25T04:33:29.861Z,7.19
2018-09-25T04:35:22.557Z,7.18
2018-09-25T04:36:22.432Z,7.18
2018-09-25T04:38:15.091Z,7.19
2018-09-25T04:39:14.984Z,7.15
2018-09-25T04:41:07.674Z,7.15
2018-09-25T04:42:07.542Z,7.13
2018-09-25T04:44:00.204Z,7.09
2018-09-25T04:45:00.095Z,7.15
2018-09-25T04:46:52.787Z,7.15
2018-09-25T04:47:52.692Z,7.18
2018-09-25T04:49:45.319Z,7.12
2018-09-25T04:50:45.209Z,7.09
2018-09-25T04:52:37.889Z,7.12
2018-09-25T04:53:37.751Z,7.11
2018-09-25T04:55:30.424Z,7.12
2018-09-25T04:56:30.302Z,7.12
2018-09-25T04:58:22.994Z,7.12
2018-09-25T04:59:22.869Z,7.05
2018-09-25T05:01:15.525Z,7.08
2018-09-25T05:02:15.416Z,7.09
2018-09-25T05:04:08.094Z,7.13
2018-09-25T05:05:07.967Z,6.98
2018-09-25T05:07:00.628Z,6.94
2018-09-25T05:08:00.517Z,6.95
2018-09-25T05:09:53.211Z,6.98
2018-09-25T05:10:53.066Z,6.97
2018-09-25T05:12:45.761Z,6.97
2018-09-25T05:13:45.627Z,7.04
2018-09-25T05:15:38.299Z,7.12
2018-09-25T05:16:38.165Z,7.11
2018-09-25T05:18:30.831Z,7.05
2018-09-25T05:19:30.720Z,7.13
2018-09-25T05:21:23.394Z,7.11
2018-09-25T05:22:23.394Z,7.12
2018-09-25T05:24:15.936Z,7.15
2018-09-25T05:25:15.824Z,7.13
2018-09-25T05:27:08.503Z,7.18
2018-09-25T05:28:08.377Z,7.19
2018-09-25T05:30:01.037Z,7.27
2018-09-25T05:31:00.926Z,7.29
2018-09-25T05:32:53.616Z,7.36
2018-09-25T05:33:53.484Z,7.33
2018-09-25T05:35:46.154Z,7.37
2018-09-25T05:36:46.031Z,7.30
2018-09-25T05:38:38.718Z,7.29
2018-09-25T05:39:38.584Z,7.30
2018-09-25T05:41:31.284Z,7.30
2018-09-25T05:42:31.147Z,7.34
2018-09-25T05:44:23.830Z,7.31
2018-09-25T05:45:23.695Z,7.39
2018-09-25T05:47:16.363Z,7.44
2018-09-25T05:48:16.277Z,7.49
2018-09-25T05:50:08.931Z,7.45
2018-09-25T05:51:08.805Z,7.39
2018-09-25T05:53:01.458Z,7.41
2018-09-25T05:54:01.350Z,7.45
2018-09-25T05:55:54.032Z,7.47
2018-09-25T05:56:53.902Z,7.47
2018-09-25T05:58:46.566Z,7.59
2018-09-25T05:59:46.454Z,7.59
2018-09-25T06:01:39.156Z,7.52
2018-09-25T06:02:39.014Z,7.56
2018-09-25T06:04:31.675Z,7.68
2018-09-25T06:05:31.565Z,7.56
2018-09-25T06:07:24.251Z,7.59
2018-09-25T06:08:24.123Z,7.61
2018-09-25T06:10:16.787Z,7.63
2018-09-25T06:11:16.675Z,7.56
2018-09-25T06:13:09.356Z,7.77
2018-09-25T06:14:09.235Z,7.68
2018-09-25T06:16:01.901Z,7.74
2018-09-25T06:17:01.787Z,7.73
2018-09-25T06:18:54.467Z,7.78
2018-09-25T06:19:54.334Z,7.74
2018-09-25T06:21:47.006Z,7.80
2018-09-25T06:22:46.900Z,7.95
2018-09-25T06:24:39.569Z,7.91
2018-09-25T06:25:39.442Z,7.80
2018-09-25T06:27:32.123Z,7.93
2018-09-25T06:28:32.010Z,7.89
2018-09-25T06:30:24.688Z,7.89
2018-09-25T06:31:24.554Z,7.95
2018-09-25T06:33:17.224Z,7.91
2018-09-25T06:34:17.107Z,7.95
2018-09-25T06:36:09.796Z,8.10
2018-09-25T06:37:09.679Z,8.13
2018-09-25T06:39:02.336Z,8.13
2018-09-25T06:40:02.218Z,8.11
2018-09-25T06:41:54.906Z,8.16
2018-09-25T06:42:54.778Z,8.28
2018-09-25T06:44:47.461Z,8.16
2018-09-25T06:45:47.352Z,8.22
2018-09-25T06:47:40.037Z,8.24
2018-09-25T06:48:39.896Z,8.29
2018-09-25T06:50:32.554Z,8.34
2018-09-25T06:51:32.450Z,8.36
2018-09-25T06:53:25.133Z,8.29
2018-09-25T06:54:25.003Z,8.40
2018-09-25T06:56:17.678Z,8.44
2018-09-25T06:57:17.560Z,8.36
2018-09-25T06:59:10.239Z,8.49
2018-09-25T07:00:10.108Z,8.52
2018-09-25T07:02:02.772Z,8.49
2018-09-25T07:03:02.668Z,8.44
2018-09-25T07:04:55.352Z,8.57
2018-09-25T07:05:55.219Z,8.53
2018-09-25T07:07:47.890Z,8.67
2018-09-25T07:08:47.780Z,8.62
2018-09-25T07:10:40.514Z,8.62
2018-09-25T07:11:40.338Z,8.69
2018-09-25T07:13:33.000Z,8.69
2018-09-25T07:14:32.897Z,8.83
2018-09-25T07:16:25.573Z,8.92
2018-09-25T07:17:25.450Z,8.89
2018-09-25T07:19:18.115Z,8.95
2018-09-25T07:20:18.001Z,9.08
2018-09-25T07:22:10.680Z,9.11
2018-09-25T07:23:10.555Z,9.16
2018-09-25T07:25:03.274Z,9.32
2018-09-25T07:26:03.109Z,9.44
2018-09-25T07:27:55.787Z,9.42
2018-09-25T07:28:55.660Z,9.62
2018-09-25T07:30:48.339Z,9.72
2018-09-25T07:31:48.229Z,9.72
2018-09-25T07:33:40.913Z,9.74
2018-09-25T07:34:40.785Z,9.71
2018-09-25T07:36:33.464Z,9.82
2018-09-25T07:37:33.352Z,9.74
2018-09-25T07:39:26.033Z,9.96
2018-09-25T07:40:25.899Z,9.96
2018-09-25T07:42:18.569Z,10.03
2018-09-25T07:43:18.454Z,10.07
2018-09-25T07:45:11.153Z,10.18
2018-09-25T07:46:11.012Z,10.20
2018-09-25T07:48:03.735Z,10.36
2018-09-25T07:49:03.568Z,10.41
2018-09-25T07:50:56.255Z,10.49
2018-09-25T07:51:56.130Z,10.47
2018-09-25T07:53:48.797Z,10.47
2018-09-25T07:54:48.690Z,10.63
2018-09-25T07:56:41.368Z,10.63
2018-09-25T07:57:41.249Z,10.69
2018-09-25T07:59:33.909Z,10.69
2018-09-25T08:00:33.798Z,10.79
2018-09-25T08:02:26.485Z,10.79
2018-09-25T08:03:26.359Z,10.92
2018-09-25T08:05:19.028Z,10.92
2018-09-25T08:06:18.908Z,10.98
2018-09-25T08:08:11.597Z,11.02
2018-09-25T08:09:11.532Z,11.05
2018-09-25T08:11:04.143Z,11.21
2018-09-25T08:12:04.022Z,11.26
2018-09-25T08:13:56.707Z,11.16
2018-09-25T08:14:56.578Z,11.26
2018-09-25T08:16:49.250Z,11.41
2018-09-25T08:17:49.141Z,11.26
2018-09-25T08:19:41.836Z,11.35
2018-09-25T08:20:41.701Z,11.38
2018-09-25T08:22:34.374Z,11.35
2018-09-25T08:23:34.264Z,11.35
2018-09-25T08:25:26.949Z,11.52
2018-09-25T08:26:26.816Z,11.49
2018-09-25T08:28:19.494Z,11.59
2018-09-25T08:29:19.381Z,11.61
2018-09-25T08:31:12.083Z,11.66
2018-09-25T08:32:11.957Z,11.57
2018-09-25T08:34:04.635Z,11.66
2018-09-25T08:35:04.535Z,11.75
2018-09-25T08:36:57.214Z,11.76
2018-09-25T08:37:57.088Z,11.85
2018-09-25T08:39:49.759Z,11.97
2018-09-25T08:40:49.650Z,11.98
2018-09-25T08:42:42.336Z,12.03
2018-09-25T08:43:42.207Z,12.11
2018-09-25T08:45:34.881Z,12.18
2018-09-25T08:46:34.767Z,12.20
2018-09-25T08:48:27.458Z,12.19
2018-09-25T08:49:27.334Z,12.31
2018-09-25T08:51:20.011Z,12.36
2018-09-25T08:52:19.893Z,12.31
2018-09-25T08:54:12.590Z,12.48
2018-09-25T08:55:12.462Z,12.48
2018-09-25T08:57:05.145Z,12.55
2018-09-25T08:58:05.022Z,12.51
2018-09-25T08:59:57.685Z,12.58
2018-09-25T09:00:57.620Z,12.71
2018-09-25T09:02:50.270Z,12.84
2018-09-25T09:03:50.139Z,12.78
2018-09-25T09:05:42.813Z,12.80
2018-09-25T09:06:42.702Z,12.86
2018-09-25T09:08:35.402Z,12.86
2018-09-25T09:09:35.263Z,12.99
2018-09-25T09:11:28.025Z,13.11
2018-09-25T09:12:27.921Z,13.13
2018-09-25T09:14:20.617Z,13.25
2018-09-25T09:15:20.481Z,13.24
2018-09-25T09:17:13.148Z,13.36
2018-09-25T09:18:13.052Z,13.32
2018-09-25T09:20:05.799Z,13.39
2018-09-25T09:21:05.617Z,13.40
2018-09-25T09:22:58.282Z,13.44
2018-09-25T09:23:58.173Z,13.51
2018-09-25T09:25:50.877Z,13.58
2018-09-25T09:26:50.748Z,13.58
2018-09-25T09:28:43.419Z,13.58
2018-09-25T09:29:43.307Z,13.68
2018-09-25T09:31:35.999Z,13.68
2018-09-25T09:32:35.954Z,13.69
2018-09-25T09:34:28.543Z,13.72
2018-09-25T09:35:28.440Z,13.79
2018-09-25T09:37:21.133Z,13.88
2018-09-25T09:38:21.002Z,13.86
2018-09-25T09:40:13.677Z,13.84
2018-09-25T09:41:13.645Z,13.88
2018-09-25T09:43:06.257Z,13.69
2018-09-25T09:44:06.127Z,13.75
2018-09-25T09:45:58.806Z,13.78
2018-09-25T09:46:58.697Z,13.70
2018-09-25T09:48:51.385Z,13.94
2018-09-25T09:49:51.260Z,13.88
2018-09-25T09:51:43.930Z,13.93
2018-09-25T09:52:43.827Z,13.94
2018-09-25T09:54:36.519Z,14.23
2018-09-25T09:55:36.395Z,14.13
2018-09-25T09:57:29.068Z,14.15
2018-09-25T09:58:28.964Z,14.16
2018-09-25T10:00:21.645Z,14.36
2018-09-25T10:01:21.536Z,14.30
2018-09-25T10:03:14.211Z,14.45
2018-09-25T10:04:14.100Z,14.44
2018-09-25T10:06:06.803Z,14.57
2018-09-25T10:07:06.740Z,14.48
2018-09-25T10:08:59.352Z,14.56
2018-09-25T10:09:59.249Z,14.57
2018-09-25T10:11:51.952Z,14.57
2018-09-25T10:12:51.815Z,14.53
2018-09-25T10:14:44.493Z,14.57
2018-09-25T10:15:44.385Z,14.60
2018-09-25T10:17:37.075Z,14.70
2018-09-25T10:18:36.951Z,14.67
2018-09-25T10:20:29.622Z,14.71
2018-09-25T10:21:29.519Z,14.74
2018-09-25T10:23:22.215Z,14.86
2018-09-25T10:24:22.088Z,14.93
2018-09-25T10:26:14.811Z,15.04
2018-09-25T10:27:14.686Z,15.00
2018-09-25T10:29:07.337Z,15.01
2018-09-25T10:30:07.216Z,15.00
2018-09-25T10:31:59.895Z,15.35
2018-09-25T10:32:59.794Z,15.47
2018-09-25T10:34:52.478Z,15.81
2018-09-25T10:35:52.354Z,16.00
2018-09-25T10:37:45.045Z,16.07
2018-09-25T10:38:44.937Z,16.11
2018-09-25T10:40:37.666Z,16.18
2018-09-25T10:41:37.517Z,16.22
2018-09-25T10:43:30.189Z,16.27
2018-09-25T10:44:30.079Z,16.39
2018-09-25T10:46:22.782Z,16.51
2018-09-25T10:47:22.655Z,16.69
2018-09-25T10:49:15.333Z,16.76
2018-09-25T10:50:15.230Z,16.80
2018-09-25T10:52:07.926Z,16.94
2018-09-25T10:53:07.800Z,17.03
2018-09-25T10:55:00.482Z,17.12
2018-09-25T10:56:00.428Z,17.05
2018-09-25T10:57:53.088Z,17.12
2018-09-25T10:58:52.992Z,17.10
2018-09-25T11:00:45.649Z,17.10
2018-09-25T11:01:45.542Z,17.21
2018-09-25T11:03:39.242Z,17.22
2018-09-25T11:04:39.131Z,17.36
2018-09-25T11:06:31.796Z,17.52
2018-09-25T11:07:31.719Z,17.50
2018-09-25T11:09:24.401Z,17.50
2018-09-25T11:10:24.270Z,17.31
2018-09-25T11:12:16.957Z,17.38
2018-09-25T11:13:16.856Z,17.27
2018-09-25T11:15:09.561Z,17.09
2018-09-25T11:16:09.443Z,16.91
2018-09-25T11:18:02.116Z,16.76
2018-09-25T11:19:02.006Z,16.44
2018-09-25T11:20:54.705Z,16.06
2018-09-25T11:21:54.582Z,16.07
2018-09-25T11:23:47.265Z,15.95
2018-09-25T11:24:47.166Z,15.84
2018-09-25T11:26:39.867Z,15.84
2018-09-25T11:27:39.738Z,15.92
2018-09-25T11:29:32.416Z,15.98
2018-09-25T11:30:32.307Z,15.93
2018-09-25T11:32:25.013Z,16.13
2018-09-25T11:33:24.889Z,16.08
2018-09-25T11:35:17.625Z,16.08
2018-09-25T11:36:17.461Z,16.14
2018-09-25T11:38:10.160Z,16.16
2018-09-25T11:39:10.033Z,16.22
2018-09-25T11:41:02.805Z,16.32
2018-09-25T11:42:02.611Z,16.32
2018-09-25T11:43:55.303Z,16.37
2018-09-25T11:44:55.247Z,16.30
2018-09-25T11:46:47.965Z,16.44
2018-09-25T11:47:47.828Z,16.42
2018-09-25T11:49:40.535Z,16.36
2018-09-25T11:50:40.402Z,16.33
2018-09-25T11:52:33.077Z,16.51
2018-09-25T11:53:32.972Z,16.54
2018-09-25T11:55:25.662Z,16.54
2018-09-25T11:56:25.623Z,16.65
2018-09-25T11:58:19.215Z,16.42
2018-09-25T11:59:19.107Z,16.45
2018-09-25T12:01:11.824Z,16.48
2018-09-25T12:02:11.694Z,16.55
2018-09-25T12:04:04.367Z,16.65
2018-09-25T12:05:04.262Z,16.59
2018-09-25T12:06:56.959Z,16.63
2018-09-25T12:07:56.837Z,16.63
2018-09-25T12:09:49.520Z,16.74
2018-09-25T12:10:49.410Z,16.77
2018-09-25T12:12:42.101Z,16.88
2018-09-25T12:13:42.033Z,16.94
2018-09-25T12:15:34.658Z,17.10
2018-09-25T12:16:34.553Z,17.15
2018-09-25T12:18:27.259Z,17.28
2018-09-25T12:19:27.148Z,17.47
2018-09-25T12:21:19.809Z,17.46
2018-09-25T12:22:19.706Z,17.39
2018-09-25T12:24:12.407Z,17.65
2018-09-25T12:25:12.281Z,17.79
2018-09-25T12:27:04.959Z,18.02
2018-09-25T12:28:04.854Z,18.02
2018-09-25T12:29:57.706Z,18.03
2018-09-25T12:30:57.436Z,18.17
2018-09-25T12:32:50.161Z,18.27
2018-09-25T12:33:50.030Z,18.29
2018-09-25T12:35:42.705Z,18.34
2018-09-25T12:36:42.577Z,18.26
2018-09-25T12:38:35.265Z,18.08
2018-09-25T12:39:35.151Z,18.19
2018-09-25T12:41:27.858Z,18.05
2018-09-25T12:42:27.730Z,17.98
2018-09-25T12:44:20.415Z,18.03
2018-09-25T12:45:20.314Z,18.03
2018-09-25T12:47:13.015Z,17.47
2018-09-25T12:48:12.893Z,17.17
2018-09-25T12:50:05.573Z,16.90
2018-09-25T12:51:05.475Z,16.94
2018-09-25T12:52:58.173Z,16.99
2018-09-25T12:53:58.041Z,16.92
2018-09-25T12:55:50.727Z,17.05
2018-09-25T12:56:50.619Z,17.05
2018-09-25T12:58:43.313Z,16.90
2018-09-25T12:59:43.191Z,16.91
2018-09-25T13:01:35.872Z,16.95
2018-09-25T13:02:35.767Z,17.00
2018-09-25T13:04:28.464Z,16.85
2018-09-25T13:05:28.336Z,16.85
2018-09-25T13:07:21.012Z,16.95
2018-09-25T13:08:20.910Z,16.92
2018-09-25T13:10:13.609Z,17.05
2018-09-25T13:11:13.487Z,16.91
2018-09-25T13:13:06.163Z,16.88
2018-09-25T13:14:06.052Z,16.92
2018-09-25T13:15:58.812Z,16.80
2018-09-25T13:16:58.631Z,16.80
2018-09-25T13:18:51.320Z,16.90
2018-09-25T13:19:51.282Z,16.76
2018-09-25T13:21:43.909Z,16.63
2018-09-25T13:22:43.784Z,16.49
2018-09-25T13:24:36.466Z,16.47
2018-09-25T13:25:36.355Z,16.55
2018-09-25T13:27:29.048Z,16.63
2018-09-25T13:28:28.926Z,16.62
2018-09-25T13:30:21.627Z,16.63
2018-09-25T13:31:21.502Z,16.57
2018-09-25T13:33:14.214Z,16.57
2018-09-25T13:34:14.077Z,16.74
2018-09-25T13:36:06.758Z,16.73
2018-09-25T13:37:06.650Z,16.70
2018-09-25T13:38:59.344Z,16.76
2018-09-25T13:39:59.224Z,16.70
2018-09-25T13:41:51.917Z,16.59
2018-09-25T13:42:51.810Z,16.73
2018-09-25T13:44:44.503Z,16.59
2018-09-25T13:45:44.382Z,16.52
2018-09-25T13:47:37.068Z,16.59
2018-09-25T13:48:36.964Z,16.54
2018-09-25T13:50:29.665Z,16.57
2018-09-25T13:51:29.541Z,16.66
2018-09-25T13:53:22.211Z,16.72
2018-09-25T13:54:22.112Z,16.80
2018-09-25T13:56:14.907Z,16.73
2018-09-25T13:57:14.681Z,16.80
2018-09-25T13:59:07.361Z,16.90
2018-09-25T14:00:07.261Z,16.88
2018-09-25T14:01:59.952Z,16.94
2018-09-25T14:02:59.831Z,16.94
2018-09-25T14:04:52.505Z,16.88
2018-09-25T14:05:52.396Z,17.02
2018-09-25T14:07:45.107Z,17.06
2018-09-25T14:08:44.986Z,17.05
2018-09-25T14:10:37.657Z,17.05
2018-09-25T14:11:37.554Z,17.15
2018-09-25T14:13:30.247Z,17.18
2018-09-25T14:14:30.121Z,17.12
2018-09-25T14:16:22.804Z,17.10
2018-09-25T14:17:22.691Z,17.15
2018-09-25T14:19:15.390Z,17.35
2018-09-25T14:20:15.268Z,17.25
2018-09-25T14:22:08.080Z,17.17
2018-09-25T14:23:07.912Z,17.10
2018-09-25T14:25:00.607Z,16.87
2018-09-25T14:26:00.482Z,16.88
2018-09-25T14:27:53.219Z,16.90
2018-09-25T14:28:53.050Z,16.91
2018-09-25T14:30:45.755Z,16.87
2018-09-25T14:31:45.626Z,16.91
2018-09-25T14:33:38.308Z,16.94
2018-09-25T14:34:38.234Z,17.03
2018-09-25T14:36:30.888Z,17.13
2018-09-25T14:37:30.778Z,17.18
2018-09-25T14:39:23.454Z,17.24
2018-09-25T14:40:23.338Z,17.21
2018-09-25T14:42:16.041Z,17.22
2018-09-25T14:43:15.920Z,17.30
2018-09-25T14:45:08.630Z,17.35
2018-09-25T14:46:08.500Z,17.39
2018-09-25T14:48:01.182Z,17.45
2018-09-25T14:49:01.067Z,17.50
2018-09-25T14:50:53.741Z,17.39
2018-09-25T14:51:53.636Z,17.45
2018-09-25T14:53:46.336Z,17.46
2018-09-25T14:54:46.215Z,17.49
2018-09-25T14:56:38.899Z,17.42
2018-09-25T14:57:38.789Z,17.40
2018-09-25T14:59:31.495Z,17.21
2018-09-25T15:00:31.363Z,17.17
2018-09-25T15:02:24.049Z,17.09
2018-09-25T15:03:23.943Z,16.91
2018-09-25T15:05:16.800Z,16.80
2018-09-25T15:06:16.519Z,16.81
2018-09-25T15:08:09.192Z,16.76
2018-09-25T15:09:09.090Z,16.62
2018-09-25T15:11:01.787Z,16.47
2018-09-25T15:12:01.666Z,16.40
2018-09-25T15:13:54.339Z,16.29
2018-09-25T15:14:54.238Z,16.26
2018-09-25T15:16:46.932Z,16.17
2018-09-25T15:17:46.809Z,16.16
2018-09-25T15:19:39.482Z,15.96
2018-09-25T15:20:39.389Z,16.06
2018-09-25T15:22:32.070Z,16.04
2018-09-25T15:23:31.950Z,16.10
2018-09-25T15:25:24.634Z,16.17
2018-09-25T15:26:24.531Z,16.16
2018-09-25T15:28:17.220Z,16.10
2018-09-25T15:29:17.103Z,16.13
2018-09-25T15:31:09.774Z,16.26
2018-09-25T15:32:09.666Z,16.32
2018-09-25T15:34:02.369Z,16.21
2018-09-25T15:35:02.267Z,16.29
2018-09-25T15:36:54.919Z,16.32
2018-09-25T15:37:54.870Z,16.26
2018-09-25T15:39:47.508Z,16.30
2018-09-25T15:40:47.417Z,16.37
2018-09-25T15:42:40.061Z,16.22
2018-09-25T15:43:39.967Z,16.21
2018-09-25T15:45:32.664Z,16.33
2018-09-25T15:46:32.533Z,16.30
2018-09-25T15:48:25.207Z,16.25
2018-09-25T15:49:25.153Z,16.33
2018-09-25T15:51:17.803Z,16.30
2018-09-25T15:52:17.675Z,16.30
2018-09-25T15:54:10.352Z,16.36
2018-09-25T15:55:10.241Z,16.29
2018-09-25T15:57:02.930Z,16.33
2018-09-25T15:58:02.811Z,16.32
2018-09-25T15:59:55.490Z,16.27
2018-09-25T16:00:55.380Z,16.21
2018-09-25T16:02:48.085Z,16.21
2018-09-25T16:03:47.960Z,16.26
2018-09-25T16:05:40.634Z,16.11
2018-09-25T16:06:40.533Z,16.17
2018-09-25T16:08:33.222Z,16.18
2018-09-25T16:09:33.099Z,16.11
2018-09-25T16:11:25.784Z,16.14
2018-09-25T16:12:25.674Z,16.11
2018-09-25T16:14:18.366Z,16.10
2018-09-25T16:15:18.242Z,16.13
2018-09-25T16:17:10.918Z,16.13
2018-09-25T16:18:10.808Z,16.07
2018-09-25T16:20:03.514Z,16.08
2018-09-25T16:21:03.383Z,16.04
2018-09-25T16:22:56.075Z,16.11
2018-09-25T16:23:55.949Z,16.07
2018-09-25T16:25:48.644Z,16.11
2018-09-25T16:26:48.520Z,16.00
2018-09-25T16:28:41.193Z,15.93
2018-09-25T16:29:41.231Z,16.02
2018-09-25T16:31:33.784Z,15.92
2018-09-25T16:32:33.721Z,15.93
2018-09-25T16:34:26.341Z,15.91
2018-09-25T16:35:26.294Z,15.92
2018-09-25T16:37:18.925Z,15.88
2018-09-25T16:38:18.801Z,15.88
2018-09-25T16:40:11.474Z,15.84
2018-09-25T16:41:11.368Z,15.84
2018-09-25T16:43:04.075Z,15.81
2018-09-25T16:44:03.950Z,15.81
2018-09-25T16:45:56.631Z,15.88
2018-09-25T16:46:56.527Z,15.75
2018-09-25T16:48:49.224Z,15.78
2018-09-25T16:49:49.089Z,15.81
2018-09-25T16:51:41.772Z,15.77
2018-09-25T16:52:41.666Z,15.74
2018-09-25T16:54:34.357Z,15.73
2018-09-25T16:55:34.240Z,15.86
2018-09-25T16:57:26.909Z,15.74
2018-09-25T16:58:26.801Z,15.73
2018-09-25T17:00:19.499Z,15.74
2018-09-25T17:01:19.377Z,15.77
2018-09-25T17:03:12.051Z,15.67
2018-09-25T17:04:11.940Z,15.63
2018-09-25T17:06:04.675Z,15.68
2018-09-25T17:07:04.522Z,15.65
2018-09-25T17:08:57.180Z,15.67
2018-09-25T17:09:57.070Z,15.65
2018-09-25T17:11:49.773Z,15.49
2018-09-25T17:12:49.645Z,15.51
2018-09-25T17:14:42.320Z,15.47
2018-09-25T17:15:42.220Z,15.51
2018-09-25T17:17:34.917Z,15.45
2018-09-25T17:18:34.786Z,15.45
2018-09-25T17:20:27.459Z,15.47
2018-09-25T17:21:27.357Z,15.35
2018-09-25T17:23:20.056Z,15.40
2018-09-25T17:24:19.923Z,15.41
2018-09-25T17:26:12.601Z,15.35
2018-09-25T17:27:12.495Z,15.30
2018-09-25T17:29:05.181Z,15.22
2018-09-25T17:30:05.064Z,15.16
2018-09-25T17:31:57.743Z,15.19
2018-09-25T17:32:57.635Z,15.08
2018-09-25T17:34:50.346Z,15.04
2018-09-25T17:35:50.195Z,14.97
2018-09-25T17:37:42.867Z,14.94
2018-09-25T17:38:42.760Z,14.89
2018-09-25T17:40:35.534Z,14.80
2018-09-25T17:41:35.328Z,14.74
2018-09-25T17:43:27.999Z,14.53
2018-09-25T17:44:27.895Z,14.51
2018-09-25T17:46:20.587Z,14.45
2018-09-25T17:47:20.462Z,14.39
2018-09-25T17:49:13.215Z,14.16
2018-09-25T17:50:13.053Z,14.20
2018-09-25T17:52:05.750Z,14.05
2018-09-25T17:53:05.628Z,13.97
2018-09-25T17:54:58.301Z,13.97
2018-09-25T17:55:58.197Z,13.84
2018-09-25T17:57:50.882Z,13.79
2018-09-25T17:58:50.800Z,13.70
2018-09-25T18:00:43.431Z,13.68
2018-09-25T18:01:43.339Z,13.62
2018-09-25T18:03:36.010Z,13.57
2018-09-25T18:04:35.887Z,13.53
2018-09-25T18:06:28.556Z,13.60
2018-09-25T18:07:28.450Z,13.60
2018-09-25T18:09:21.144Z,13.54
2018-09-25T18:10:21.024Z,13.57
2018-09-25T18:12:13.702Z,13.51
2018-09-25T18:13:13.581Z,13.44
2018-09-25T18:15:06.274Z,13.39
2018-09-25T18:16:06.151Z,13.32
2018-09-25T18:17:58.821Z,13.25
2018-09-25T18:18:58.707Z,13.28
2018-09-25T18:20:51.402Z,13.19
2018-09-25T18:21:51.270Z,13.17
2018-09-25T18:23:43.951Z,13.17
2018-09-25T18:24:43.852Z,13.16
2018-09-25T18:26:36.539Z,13.06
2018-09-25T18:27:36.411Z,12.95
2018-09-25T18:29:29.083Z,12.96
2018-09-25T18:30:28.984Z,12.96
2018-09-25T18:32:21.661Z,12.91
2018-09-25T18:33:21.549Z,12.95
2018-09-25T18:35:14.211Z,12.83
2018-09-25T18:36:14.111Z,12.81
2018-09-25T18:38:06.832Z,12.83
2018-09-25T18:39:06.671Z,12.77
2018-09-25T18:40:59.347Z,12.73
2018-09-25T18:41:59.263Z,12.71
2018-09-25T18:43:51.984Z,12.70
2018-09-25T18:44:51.837Z,12.70
2018-09-25T18:46:44.489Z,12.62
2018-09-25T18:47:44.379Z,12.58
2018-09-25T18:49:37.074Z,12.56
2018-09-25T18:50:36.997Z,12.56
2018-09-25T18:52:29.617Z,12.44
2018-09-25T18:53:29.512Z,12.40
2018-09-25T18:55:22.199Z,12.28
2018-09-25T18:56:22.066Z,12.29
2018-09-25T18:58:14.732Z,12.36
2018-09-25T18:59:14.644Z,12.34
2018-09-25T19:01:07.331Z,12.23
2018-09-25T19:02:07.202Z,12.19
2018-09-25T19:03:59.873Z,12.19
2018-09-25T19:04:59.848Z,12.18
2018-09-25T19:06:52.554Z,12.11
2018-09-25T19:07:52.426Z,12.01
2018-09-25T19:09:45.094Z,12.11
2018-09-25T19:10:44.982Z,12.05
2018-09-25T19:12:37.683Z,12.00
2018-09-25T19:13:37.550Z,12.00
2018-09-25T19:15:30.277Z,11.94
2018-09-25T19:16:30.113Z,11.88
2018-09-25T19:18:23.015Z,11.79
2018-09-25T19:19:22.680Z,11.84
2018-09-25T19:21:15.598Z,11.71
2018-09-25T19:22:15.485Z,11.76
2018-09-25T19:24:09.192Z,11.70
2018-09-25T19:25:09.394Z,11.68
2018-09-25T19:27:01.805Z,11.59
2018-09-25T19:28:01.748Z,11.61
2018-09-25T19:29:54.375Z,11.59
2018-09-25T19:30:54.254Z,11.64
2018-09-25T19:32:46.924Z,11.57
2018-09-25T19:33:46.816Z,11.59
2018-09-25T19:35:39.495Z,11.64
2018-09-25T19:36:39.371Z,11.64
2018-09-25T19:38:32.040Z,11.59
2018-09-25T19:39:31.932Z,11.63
2018-09-25T19:41:24.617Z,11.63
2018-09-25T19:42:24.492Z,11.60
2018-09-25T19:44:17.176Z,11.64
2018-09-25T19:45:17.050Z,11.56
2018-09-25T19:47:09.742Z,11.49
2018-09-25T19:48:09.869Z,11.53
2018-09-25T19:50:02.283Z,11.46
2018-09-25T19:51:02.200Z,11.56
2018-09-25T19:52:54.865Z,11.56
2018-09-25T19:53:54.786Z,11.46
2018-09-25T19:55:47.404Z,11.41
2018-09-25T19:56:47.294Z,11.35
2018-09-25T19:58:39.999Z,11.41
2018-09-25T19:59:39.862Z,11.33
2018-09-25T20:01:32.531Z,11.30
2018-09-25T20:02:32.425Z,11.33
2018-09-25T20:04:25.109Z,11.42
2018-09-25T20:05:24.978Z,11.38
2018-09-25T20:07:17.792Z,11.30
2018-09-25T20:08:17.554Z,11.41
2018-09-25T20:10:10.299Z,11.28
2018-09-25T20:11:10.179Z,11.21
2018-09-25T20:13:02.839Z,11.18
2018-09-25T20:14:02.726Z,11.21
2018-09-25T20:15:55.413Z,11.23
2018-09-25T20:16:55.281Z,11.24
2018-09-25T20:18:47.951Z,11.23
2018-09-25T20:19:47.862Z,11.18
2018-09-25T20:21:40.541Z,11.24
2018-09-25T20:22:40.412Z,11.21
2018-09-25T20:24:33.092Z,11.16
2018-09-25T20:25:32.972Z,11.15
2018-09-25T20:27:25.668Z,11.20
2018-09-25T20:28:25.547Z,11.23
2018-09-25T20:30:18.207Z,11.09
2018-09-25T20:31:18.864Z,11.13
2018-09-25T20:33:10.897Z,11.08
2018-09-25T20:34:10.775Z,11.05
2018-09-25T20:36:04.607Z,11.12
2018-09-25T20:37:04.189Z,11.13
2018-09-25T20:38:56.964Z,11.02
2018-09-25T20:39:56.748Z,10.98
2018-09-25T20:41:49.448Z,10.92
2018-09-25T20:42:49.382Z,10.88
2018-09-25T20:44:42.030Z,10.88
2018-09-25T20:45:42.177Z,10.88
2018-09-25T20:47:34.609Z,10.84
2018-09-25T20:48:34.497Z,10.92
2018-09-25T20:50:27.198Z,10.94
2018-09-25T20:51:27.072Z,10.90
2018-09-25T20:53:19.764Z,10.80
2018-09-25T20:54:19.651Z,10.76
2018-09-25T20:56:12.347Z,10.70
2018-09-25T20:57:12.219Z,10.67
2018-09-25T20:59:04.883Z,10.72
2018-09-25T21:00:04.778Z,10.65
2018-09-25T21:01:57.522Z,10.67
2018-09-25T21:02:57.326Z,10.66
2018-09-25T21:04:49.993Z,10.67
2018-09-25T21:05:49.885Z,10.73
2018-09-25T21:07:42.572Z,10.66
2018-09-25T21:08:42.440Z,10.63
2018-09-25T21:10:35.124Z,10.63
2018-09-25T21:11:35.021Z,10.66
2018-09-25T21:13:27.695Z,10.66
2018-09-25T21:14:27.570Z,10.66
2018-09-25T21:16:20.251Z,10.66
2018-09-25T21:17:20.138Z,10.63
2018-09-25T21:19:12.818Z,10.63
2018-09-25T21:20:12.690Z,10.65
2018-09-25T21:22:05.377Z,10.65
2018-09-25T21:23:05.245Z,10.58
2018-09-25T21:24:57.937Z,10.66
2018-09-25T21:25:57.802Z,10.58
2018-09-25T21:27:50.468Z,10.67
2018-09-25T21:28:50.361Z,10.57
2018-09-25T21:30:43.046Z,10.57
2018-09-25T21:31:42.918Z,10.52
2018-09-25T21:33:35.603Z,10.57
2018-09-25T21:34:35.492Z,10.49
2018-09-25T21:36:28.182Z,10.51
2018-09-25T21:37:28.044Z,10.55
2018-09-25T21:39:20.767Z,10.46
2018-09-25T21:40:20.608Z,10.47
2018-09-25T21:42:13.288Z,10.44
2018-09-25T21:43:13.152Z,10.33
2018-09-25T21:45:05.952Z,10.44
2018-09-25T21:46:05.709Z,10.33
2018-09-25T21:47:58.385Z,10.31
2018-09-25T21:48:58.326Z,10.29
2018-09-25T21:50:50.979Z,10.35
2018-09-25T21:51:50.920Z,10.28
2018-09-25T21:53:43.516Z,10.29
2018-09-25T21:54:43.373Z,10.33
2018-09-25T21:56:36.042Z,10.31
2018-09-25T21:57:36.030Z,10.39
2018-09-25T21:59:28.620Z,10.33
